Time;durP1;ratioP1;P1;durP2;ratioP2;P2;SDS_P1;SDS_P2;PMS_P1;PMS_P2;Temp;Humidity;BMP_temperature;BMP_pressure;BME280_temperature;BME280_humidity;BME280_pressure;Samples;Min_cycle;Max_cycle;Signal;HPM_P1;HPM_P2
2022/10/12 04:11:19;;;;;;;41.30;24.40;;;;;;;9.41;100.00;101156.16;5555305;32;260345;-89
2022/10/12 04:14:22;;;;;;;37.30;23.62;;;;;;;9.33;100.00;101166.09;5546658;32;33634;-89
2022/10/12 04:17:25;;;;;;;40.12;25.52;;;;;;;9.29;100.00;101160.94;5544863;32;33453;-89
2022/10/12 04:20:28;;;;;;;37.55;22.95;;;;;;;9.37;100.00;101162.47;5543474;32;33890;-89
2022/10/12 04:23:30;;;;;;;35.65;22.33;;;;;;;9.43;100.00;101165.78;5542888;32;33066;-89
2022/10/12 04:26:33;;;;;;;35.03;20.77;;;;;;;9.41;100.00;101170.25;5543418;32;34513;-88
2022/10/12 04:29:36;;;;;;;31.62;21.10;;;;;;;9.50;100.00;101168.25;5543778;32;33925;-89
2022/10/12 04:32:38;;;;;;;36.55;20.42;;;;;;;9.43;100.00;101164.91;5544664;32;34164;-89
2022/10/12 04:35:41;;;;;;;33.95;20.60;;;;;;;9.37;100.00;101168.63;5547015;32;33921;-89
2022/10/12 04:38:44;;;;;;;32.72;20.05;;;;;;;9.36;100.00;101168.69;5546694;32;34083;-88
2022/10/12 04:41:46;;;;;;;29.63;19.73;;;;;;;9.32;100.00;101172.31;5545960;32;33887;-89
2022/10/12 04:44:49;;;;;;;31.73;20.58;;;;;;;9.30;100.00;101169.72;5544822;32;33520;-89
2022/10/12 04:47:51;;;;;;;31.37;20.88;;;;;;;9.29;100.00;101166.22;5543766;32;33457;-89
2022/10/12 04:50:54;;;;;;;33.45;20.90;;;;;;;9.26;100.00;101170.75;5543812;32;34438;-89
2022/10/12 04:53:57;;;;;;;35.00;20.62;;;;;;;9.22;100.00;101170.00;5543792;32;33788;-89
2022/10/12 04:56:59;;;;;;;29.75;20.15;;;;;;;9.20;100.00;101166.50;5546049;32;34069;-87
2022/10/12 05:00:02;;;;;;;27.17;18.77;;;;;;;9.22;100.00;101171.75;5546813;32;35361;-87
2022/10/12 05:03:05;;;;;;;30.12;20.05;;;;;;;9.21;100.00;101167.38;5543523;32;34404;-86
2022/10/12 05:06:08;;;;;;;28.23;20.02;;;;;;;9.20;100.00;101169.16;5540966;32;34739;-86
2022/10/12 05:09:11;;;;;;;29.73;19.73;;;;;;;9.27;100.00;101178.63;5542010;32;34507;-87
2022/10/12 05:12:18;;;;;;;27.62;19.25;;;;;;;9.51;100.00;101191.16;5543190;32;34375;-88
2022/10/12 05:15:21;;;;;;;29.67;20.35;;;;;;;9.35;100.00;101191.62;5541537;32;33150;-88
2022/10/12 05:18:24;;;;;;;32.35;20.12;;;;;;;9.36;100.00;101190.72;5543604;32;34006;-88
2022/10/12 05:25:29;;;;;;;27.75;19.42;;;;;;;9.48;100.00;101197.41;1523149;26;20186;-85
2022/10/12 05:28:32;;;;;;;31.90;18.92;;;;;;;9.59;100.00;101198.84;5547866;32;32802;-86
2022/10/12 05:31:41;;;;;;;28.65;19.60;;;;;;;9.71;100.00;101198.47;5546639;32;32866;-85
2022/10/12 05:34:44;;;;;;;28.52;19.62;;;;;;;9.80;100.00;101197.25;5545119;32;35000;-86
2022/10/12 05:37:46;;;;;;;30.30;20.23;;;;;;;9.92;100.00;101199.50;5532808;32;33506;-86
2022/10/12 05:40:49;;;;;;;29.73;19.42;;;;;;;10.03;100.00;101196.50;5538464;32;34136;-86
2022/10/12 05:43:52;;;;;;;31.05;20.08;;;;;;;10.20;100.00;101198.56;5530720;32;34059;-87
2022/10/12 05:46:55;;;;;;;29.75;18.90;;;;;;;10.44;100.00;101203.94;5530713;32;32543;-86
2022/10/12 05:49:57;;;;;;;28.55;19.02;;;;;;;10.46;100.00;101204.75;5529446;32;34157;-87
2022/10/12 05:53:00;;;;;;;27.60;19.12;;;;;;;10.57;100.00;101207.00;5529657;32;34331;-86
2022/10/12 05:56:03;;;;;;;39.35;19.70;;;;;;;10.63;100.00;101213.91;5530174;32;33793;-86
2022/10/12 05:59:05;;;;;;;31.65;19.77;;;;;;;10.63;100.00;101217.44;5538696;32;34295;-86
2022/10/12 06:02:14;;;;;;;34.00;20.95;;;;;;;10.77;100.00;101216.91;5543985;32;32338;-88
2022/10/12 06:05:17;;;;;;;27.87;19.60;;;;;;;10.85;100.00;101215.75;5536998;32;34539;-88
2022/10/12 06:08:19;;;;;;;27.77;19.02;;;;;;;10.90;100.00;101214.66;5534255;32;34182;-86
2022/10/12 06:11:22;;;;;;;31.17;20.42;;;;;;;11.00;100.00;101225.78;5532205;32;33624;-87
2022/10/12 06:14:25;;;;;;;29.95;19.02;;;;;;;11.16;100.00;101234.03;5535900;32;33944;-88
2022/10/12 06:17:27;;;;;;;30.42;18.40;;;;;;;11.32;100.00;101229.00;5551392;32;35254;-87
2022/10/12 06:20:30;;;;;;;32.20;20.50;;;;;;;11.57;100.00;101224.50;5536240;32;34516;-88
2022/10/12 06:23:33;;;;;;;32.85;19.80;;;;;;;11.81;100.00;101229.72;5536430;32;34978;-88
2022/10/12 06:26:35;;;;;;;31.58;19.75;;;;;;;11.92;100.00;101235.47;5530445;32;34830;-88
2022/10/12 06:29:38;;;;;;;28.55;19.48;;;;;;;12.09;100.00;101232.16;5548722;32;33871;-88
2022/10/12 06:32:41;;;;;;;29.77;20.65;;;;;;;12.36;100.00;101228.34;5553454;32;34369;-86
2022/10/12 06:35:44;;;;;;;33.25;19.37;;;;;;;12.62;100.00;101242.31;5551162;32;34063;-87
2022/10/12 06:38:46;;;;;;;33.00;20.73;;;;;;;12.71;100.00;101236.56;5551675;32;32170;-86
2022/10/12 06:41:49;;;;;;;28.05;18.85;;;;;;;12.87;100.00;101242.06;5551396;32;34019;-86
2022/10/12 06:44:53;;;;;;;30.00;20.85;;;;;;;13.05;100.00;101237.72;5543742;32;33803;-88
2022/10/12 06:47:56;;;;;;;30.45;19.50;;;;;;;13.18;100.00;101242.47;5537631;32;33452;-89
2022/10/12 06:50:59;;;;;;;31.55;19.75;;;;;;;13.45;100.00;101245.62;5543067;32;34084;-87
2022/10/12 06:54:02;;;;;;;31.10;19.48;;;;;;;13.71;100.00;101246.19;5546289;32;34405;-87
2022/10/12 06:57:05;;;;;;;31.83;19.85;;;;;;;14.02;100.00;101254.44;5549134;32;34301;-88
2022/10/12 07:11:30;;;;;;;29.45;19.08;;;;;;;15.40;96.43;101265.06;5369377;29;20104;-86
2022/10/12 07:14:33;;;;;;;30.75;18.55;;;;;;;15.57;94.65;101261.44;5548386;32;34085;-86
2022/10/12 07:17:35;;;;;;;22.35;17.52;;;;;;;15.73;91.56;101263.22;5547065;32;33842;-86
2022/10/12 07:20:39;;;;;;;26.23;18.15;;;;;;;15.88;91.41;101254.31;5514967;32;32889;-86
2022/10/12 07:23:41;;;;;;;28.50;17.48;;;;;;;16.01;87.88;101251.84;5535404;32;35402;-86
2022/10/12 07:26:49;;;;;;;25.30;17.15;;;;;;;15.83;86.87;101256.41;5519023;32;33309;-85
2022/10/12 07:29:51;;;;;;;24.35;17.48;;;;;;;15.67;85.72;101260.91;5542049;32;34203;-87
2022/10/12 07:32:54;;;;;;;29.00;18.20;;;;;;;15.38;88.56;101258.94;5548000;32;35326;-87
2022/10/12 07:35:57;;;;;;;28.80;18.02;;;;;;;15.47;89.49;101260.22;5548649;32;35121;-90
2022/10/12 07:39:23;;;;;;;28.02;17.33;;;;;;;15.55;89.46;101255.31;5544359;32;34651;-86
2022/10/12 07:42:25;;;;;;;26.80;16.45;;;;;;;15.54;89.13;101256.25;5543096;32;33864;-87
2022/10/12 07:45:28;;;;;;;25.98;18.15;;;;;;;15.52;92.61;101250.13;5524585;32;32357;-87
2022/10/12 07:48:31;;;;;;;25.52;18.33;;;;;;;15.58;89.25;101249.78;5525418;32;33842;-86
2022/10/12 07:51:36;;;;;;;27.55;17.62;;;;;;;15.72;90.64;101246.31;5540252;32;34045;-87
2022/10/12 07:54:38;;;;;;;30.58;17.35;;;;;;;15.76;87.27;101247.84;5528716;32;33956;-87
2022/10/12 07:57:43;;;;;;;23.25;17.05;;;;;;;15.72;87.94;101248.13;5515137;32;32313;-88
2022/10/12 08:00:45;;;;;;;25.33;17.75;;;;;;;15.80;88.34;101250.37;5532560;32;33459;-88
2022/10/12 08:03:49;;;;;;;27.35;17.90;;;;;;;15.79;87.74;101249.50;5537033;32;33750;-87
2022/10/12 08:06:51;;;;;;;27.17;17.40;;;;;;;15.88;86.55;101248.97;5531875;32;34462;-87
2022/10/12 08:09:54;;;;;;;23.90;16.67;;;;;;;16.14;84.90;101251.94;5542216;32;35145;-86
2022/10/12 08:12:56;;;;;;;23.20;16.95;;;;;;;16.39;83.72;101258.50;5537428;32;32648;-88
2022/10/12 08:16:02;;;;;;;27.08;17.67;;;;;;;16.55;82.88;101254.91;5545668;32;32436;-88
2022/10/12 08:19:05;;;;;;;24.23;17.15;;;;;;;16.48;83.62;101261.56;5540062;32;33966;-88
2022/10/12 08:22:10;;;;;;;27.05;17.62;;;;;;;16.39;83.75;101252.31;5540083;32;34726;-86
2022/10/12 08:25:12;;;;;;;23.58;17.90;;;;;;;16.48;82.93;101250.87;5533140;32;34969;-88
2022/10/12 08:28:15;;;;;;;21.75;16.55;;;;;;;16.41;82.88;101247.72;5528401;32;34073;-88
2022/10/12 08:31:18;;;;;;;30.92;17.67;;;;;;;16.60;83.07;101249.28;5538843;32;34004;-88
2022/10/12 08:34:21;;;;;;;23.12;16.87;;;;;;;16.74;81.53;101256.47;5532964;32;33821;-90
2022/10/12 08:41:33;;;;;;;25.27;17.62;;;;;;;17.16;80.81;101251.22;1174455;26;20392;-85
2022/10/12 08:45:03;;;;;;;29.83;17.95;;;;;;;17.06;77.60;101246.41;5549126;32;34024;-87
2022/10/12 08:48:19;;;;;;;24.70;17.07;;;;;;;17.09;80.48;101248.03;5544983;32;35173;-89
2022/10/12 08:51:35;;;;;;;24.92;17.30;;;;;;;17.32;78.47;101246.59;5535939;32;33597;-87
2022/10/12 08:54:42;;;;;;;36.97;18.58;;;;;;;17.42;78.25;101240.63;5527938;32;32135;-87
2022/10/12 08:57:44;;;;;;;25.92;17.52;;;;;;;17.56;76.57;101248.62;5526416;32;34438;-87
2022/10/12 09:00:56;;;;;;;24.17;16.62;;;;;;;17.56;77.19;101251.31;5546164;32;33545;-87
2022/10/12 09:04:39;;;;;;;30.35;17.55;;;;;;;17.55;77.70;101252.25;5531796;32;32445;-87
2022/10/12 09:07:52;;;;;;;26.05;17.80;;;;;;;17.52;76.09;101256.00;5554983;32;34283;-87
2022/10/12 09:11:17;;;;;;;24.23;17.35;;;;;;;17.59;77.12;101250.22;5542767;32;35190;-89
2022/10/12 09:14:25;;;;;;;24.67;18.52;;;;;;;17.91;78.70;101256.16;5542887;32;34428;-87
2022/10/12 09:21:18;;;;;;;28.33;17.92;;;;;;;17.66;77.51;101256.94;5508501;26;32053;-87
2022/10/12 09:24:25;;;;;;;26.05;17.48;;;;;;;17.62;76.65;101252.72;5530518;32;34338;-86
2022/10/12 09:27:30;;;;;;;28.62;17.95;;;;;;;17.52;78.91;101249.78;5540917;32;34291;-87
2022/10/12 09:30:40;;;;;;;24.92;16.50;;;;;;;17.53;76.58;101254.19;5541101;32;34877;-87
2022/10/12 09:33:49;;;;;;;26.00;16.37;;;;;;;17.65;77.62;101256.06;5545026;32;33333;-87
2022/10/12 09:36:54;;;;;;;27.30;17.02;;;;;;;17.97;76.73;101248.66;5545384;32;32760;-86
2022/10/12 09:39:58;;;;;;;32.92;17.75;;;;;;;17.68;76.50;101252.31;5545221;32;34743;-86
2022/10/12 09:43:02;;;;;;;26.70;17.73;;;;;;;17.91;75.36;101247.25;5530152;32;34374;-86
2022/10/12 09:46:13;;;;;;;20.95;15.75;;;;;;;17.98;74.80;101253.94;5529822;32;32381;-86
2022/10/12 09:49:15;;;;;;;24.10;17.62;;;;;;;18.22;76.12;101252.38;5529916;32;33724;-86
2022/10/12 09:52:21;;;;;;;23.17;15.70;;;;;;;18.23;72.71;101257.66;5541988;32;34627;-85
2022/10/12 09:55:26;;;;;;;25.58;16.70;;;;;;;18.40;75.63;101251.13;5530524;32;33870;-85
2022/10/12 09:58:29;;;;;;;29.10;17.10;;;;;;;18.69;70.50;101253.63;5527821;32;32504;-88
2022/10/12 10:01:34;;;;;;;25.55;16.87;;;;;;;18.74;70.09;101253.28;5530880;32;32543;-87
2022/10/12 10:04:38;;;;;;;23.83;16.77;;;;;;;18.93;68.79;101257.34;5523530;32;34368;-88
2022/10/12 10:07:41;;;;;;;20.92;14.18;;;;;;;18.66;69.48;101250.28;5534292;32;33861;-87
2022/10/12 10:33:26;;;;;;;18.27;12.20;;;;;;;19.93;62.31;101253.72;5452580;32;32884;-87
2022/10/12 10:36:29;;;;;;;19.67;12.98;;;;;;;20.21;60.27;101251.63;5440156;32;33680;-87
2022/10/12 10:39:44;;;;;;;18.67;12.88;;;;;;;19.91;62.31;101244.88;5453921;32;34700;-88
2022/10/12 10:42:53;;;;;;;17.37;12.30;;;;;;;19.24;63.74;101255.16;5439610;32;32587;-85
2022/10/12 10:46:03;;;;;;;16.23;12.35;;;;;;;19.58;63.99;101247.31;5439680;32;34139;-86
2022/10/12 10:49:06;;;;;;;20.60;13.07;;;;;;;19.84;63.18;101241.81;5470230;27;34343;-89
2022/10/12 10:52:34;;;;;;;22.77;13.55;;;;;;;19.49;63.99;101242.59;5518059;26;34747;-88
2022/10/12 10:55:41;;;;;;;22.45;12.57;;;;;;;18.80;65.16;101247.47;5484893;27;35346;-88
2022/10/12 10:58:47;;;;;;;23.33;11.65;;;;;;;19.01;65.19;101246.06;5471351;32;33194;-87
2022/10/12 11:01:54;;;;;;;17.20;12.15;;;;;;;19.33;64.04;101240.19;5517644;26;32667;-87
2022/10/12 11:34:24;;;;;;;18.35;13.15;;;;;;;18.97;65.56;101230.13;998386;26;20399;-88
2022/10/12 11:38:00;;;;;;;17.55;12.70;;;;;;;19.42;64.58;101227.91;5471092;32;32880;-88
2022/10/12 11:44:51;;;;;;;18.67;12.93;;;;;;;19.59;64.79;101229.31;5503176;27;20101;-88
2022/10/12 11:48:00;;;;;;;21.77;12.75;;;;;;;19.57;63.27;101231.28;5429284;32;33410;-87
2022/10/12 13:03:59;;;;;;;16.90;11.43;;;;;;;18.93;61.76;101177.56;2100333;27;20439;-90
2022/10/12 13:18:34;;;;;;;21.12;12.18;;;;;;;19.16;64.48;101172.34;5400871;26;20199;-87
2022/10/12 13:21:53;;;;;;;14.98;11.60;;;;;;;19.02;64.52;101172.50;5504487;32;35285;-88
2022/10/12 13:25:06;;;;;;;22.98;12.52;;;;;;;19.01;64.93;101168.94;5540585;26;34392;-88
2022/10/12 13:28:17;;;;;;;15.60;11.38;;;;;;;19.06;64.46;101171.34;5505516;27;34629;-88
2022/10/12 13:31:34;;;;;;;15.18;11.75;;;;;;;18.89;66.33;101168.00;5447011;32;33618;-89
2022/10/12 13:34:42;;;;;;;19.23;12.48;;;;;;;18.65;66.56;101174.19;5441518;32;32908;-90
2022/10/12 13:37:44;;;;;;;19.20;11.80;;;;;;;18.44;67.37;101168.50;5451771;32;35155;-93
2022/10/12 13:40:53;;;;;;;17.12;11.80;;;;;;;18.79;67.29;101158.87;5440298;32;35115;-92
2022/10/12 13:44:02;;;;;;;18.77;12.00;;;;;;;18.76;67.58;101159.97;5424198;32;33303;-89
2022/10/12 13:47:23;;;;;;;18.45;11.82;;;;;;;18.79;66.06;101159.75;5443965;32;33834;-89
2022/10/12 13:50:27;;;;;;;22.52;11.90;;;;;;;18.62;65.43;101168.16;5448739;32;34005;-89
2022/10/12 13:53:36;;;;;;;13.73;11.23;;;;;;;18.75;66.53;101171.69;5495995;27;34121;-90
2022/10/12 13:56:39;;;;;;;18.00;12.27;;;;;;;18.95;66.47;101167.56;5472128;32;33978;-88
2022/10/12 13:59:42;;;;;;;18.27;12.32;;;;;;;18.96;66.41;101155.84;5503604;27;34966;-88
2022/10/12 14:02:57;;;;;;;23.02;12.32;;;;;;;18.67;66.53;101166.88;5460351;32;32653;-88
2022/10/12 14:06:00;;;;;;;21.60;11.45;;;;;;;18.58;67.54;101152.28;5459146;32;33916;-88
2022/10/12 14:09:15;;;;;;;17.83;12.15;;;;;;;18.71;67.06;101159.47;5460087;32;34011;-87
2022/10/12 14:12:18;;;;;;;18.65;11.32;;;;;;;18.47;68.96;101157.56;5458115;32;32553;-87
2022/10/12 14:15:34;;;;;;;21.10;12.10;;;;;;;18.42;68.47;101159.69;5471055;32;33935;-87
2022/10/12 14:18:44;;;;;;;17.75;11.73;;;;;;;18.30;69.61;101151.53;5471212;32;34028;-86
2022/10/12 14:21:47;;;;;;;22.03;13.13;;;;;;;18.41;69.59;101149.94;5470482;32;34311;-86
2022/10/12 14:25:15;;;;;;;17.15;12.45;;;;;;;18.21;67.43;101154.00;5471368;32;34028;-86
2022/10/12 14:28:28;;;;;;;19.98;12.30;;;;;;;18.26;68.69;101147.34;5457014;32;33468;-86
2022/10/12 14:31:53;;;;;;;20.80;12.60;;;;;;;18.26;68.22;101144.66;5470169;32;33617;-90
2022/10/12 14:35:26;;;;;;;19.25;12.05;;;;;;;18.36;67.98;101144.84;5468028;32;33185;-86
2022/10/12 14:38:41;;;;;;;16.37;11.88;;;;;;;18.13;70.65;101130.38;5471623;32;34506;-86
2022/10/12 14:41:50;;;;;;;21.02;11.68;;;;;;;18.26;70.29;101138.44;5471282;32;33511;-85
2022/10/12 14:44:53;;;;;;;20.25;12.95;;;;;;;18.40;70.04;101148.22;5471214;32;33680;-86
2022/10/12 14:47:55;;;;;;;15.13;11.95;;;;;;;18.35;71.66;101137.78;5471722;32;33950;-86
2022/10/12 14:50:58;;;;;;;20.52;11.77;;;;;;;18.26;71.58;101138.44;5478759;32;34353;-86
2022/10/12 14:54:03;;;;;;;17.62;11.50;;;;;;;17.99;74.36;101145.59;5477488;32;32429;-86
2022/10/12 14:57:16;;;;;;;21.33;11.85;;;;;;;17.93;75.44;101135.28;5470355;32;32605;-86
2022/10/12 15:00:22;;;;;;;21.35;12.95;;;;;;;17.83;77.23;101136.88;5471012;32;34510;-86
2022/10/12 15:03:25;;;;;;;19.10;12.60;;;;;;;17.60;73.95;101134.78;5472169;32;34544;-86
2022/10/12 15:06:28;;;;;;;19.35;12.48;;;;;;;17.47;75.74;101126.72;5458193;32;33438;-87
2022/10/12 15:09:30;;;;;;;19.75;12.68;;;;;;;17.44;76.65;101132.28;5473982;32;34535;-86
2022/10/12 15:12:33;;;;;;;19.20;12.48;;;;;;;17.42;75.79;101128.84;5483820;32;33727;-86
2022/10/12 15:15:45;;;;;;;18.67;12.20;;;;;;;17.27;78.00;101133.41;5475463;32;34227;-86
2022/10/12 15:18:48;;;;;;;20.37;12.15;;;;;;;17.27;78.51;101133.41;5471742;32;34291;-86
2022/10/12 15:21:51;;;;;;;17.40;12.80;;;;;;;17.19;78.64;101127.66;5471550;32;34927;-85
2022/10/12 15:24:54;;;;;;;21.92;13.43;;;;;;;17.11;78.84;101131.72;5457927;32;32428;-86
2022/10/12 15:27:57;;;;;;;24.00;12.43;;;;;;;17.06;79.08;101135.69;5471294;32;34108;-86
2022/10/12 15:31:03;;;;;;;18.65;12.10;;;;;;;16.90;79.59;101133.94;5472352;32;34558;-86
2022/10/12 15:34:19;;;;;;;21.73;12.80;;;;;;;16.83;80.24;101133.50;5457304;32;33358;-91
2022/10/12 15:37:25;;;;;;;20.05;13.20;;;;;;;16.70;81.28;101129.88;5456874;32;33055;-91
2022/10/12 15:40:29;;;;;;;19.40;13.30;;;;;;;16.53;81.89;101133.62;5470584;32;33987;-87
